Decoded Metar for LFJR (ANGERS in FRANCE) (IATA:N/A) | Meteo·Mobile Aviation Weather
aviador You're here:

LFJR Decoded Metar

ANGERS in FRANCE
Report Time2019-09-21 09:30:00
UTC Time2019-09-21 09:57:00
Flight Rules vfr VFR
Wind150° at 12 kt
W.Decomp.*RWY 08: 3.9 kt HW 11.3 kt RCW
Visibility9999 m
Phenomena:N/A
Clouds:N/A
Expected CloudBase > 3,200 ft AGL from Temp-Dew spread
CeilingNone
Temp23°C (ISA +8)
Dew Point15°C (61% RH)
AAT20.3°C
QNH1011 hPa
Density Alt1,467 ft
Elevation197 ft
Report Wrong Elevation
Raw Report
METAR LFJR 210930Z AUTO 15012KT 120V180 CAVOK 23/15 Q1011=

Extra information for LFJR:More info

Metar Taf Metar & Taf Last 4 Metars F.Rules Stats Wind Profile Meteogram Temp Stats Airport Information Weather charts Add Link Nearby VenuesMetar ALERT Operation Metar Decoded Social comments